AGROMETEOROLOŠKI PORTAL

vinorodna pokrajina

Temelj dobrega kmetovanja

Pregled podatkov za lokacijo Radlje ob Dravi, meteorološka postaja 857248

Pregled senzorjev na lokaciji

ID Ime Zadnja
vrednost
Datum in čas
meritve
(lokalni čas)
Tip
senzorja
4954 Omočenost lista (1,5 m) (U) 0 U 4.2.2023 23:00 A730WET
4953 Padavine (mm) 0 mm 4.2.2023 23:00 Generic 0.2 mm
3913 Relativna zračna vlaga (2 m) (%RH) 88 %RH 4.2.2023 23:00 50YA
3912 Temperatura (2 m) (°C) -2 °C 4.2.2023 23:00 50YA

Pregled podatkov zadnjih 24 ur

Zap.
št.
Datum in čas
(lokalni čas)
Radlje ob Dravi
Omočenost
lista
(1,5
m)
Padavine Relativna
zračna
vlaga
(2
m)
Temperatura
(2
m)
1 4.2.2023 23:00 0 0 88 -2
2 4.2.2023 22:30 0 0 82,9 -1,4
3 4.2.2023 22:00 0 0 83,4 -1,7
4 4.2.2023 21:30 0 0 80 -1,3
5 4.2.2023 21:00 0 0 80,6 -1,4
6 4.2.2023 20:30 0 0 78,5 -0,9
7 4.2.2023 20:00 0 0 76,7 -0,5
8 4.2.2023 19:30 0 0 76,4 -0,3
9 4.2.2023 19:00 0 0 73 0,5
10 4.2.2023 18:30 0 0 68,7 1,2
11 4.2.2023 18:00 0 0 64,1 2
12 4.2.2023 17:30 0 0 55,7 3,3
13 4.2.2023 17:00 0 0 51,9 4
14 4.2.2023 16:30 0 0 49,7 4,5
15 4.2.2023 16:00 0 0 47 5
16 4.2.2023 15:30 0 0 44,3 5,1
17 4.2.2023 15:00 0 0 43 5,4
18 4.2.2023 14:30 0 0 45,1 5,6
19 4.2.2023 14:00 0 0 46,5 6,3
20 4.2.2023 13:30 0 0 54,2 5,4
21 4.2.2023 13:00 0 0 54,5 5,5
22 4.2.2023 12:30 0 0 51,9 6,1
23 4.2.2023 12:00 0 0 48,8 6,4
24 4.2.2023 11:30 0 0 50,8 6,8
25 4.2.2023 11:00 0 0 60,7 6,2
26 4.2.2023 10:30 1 0 75,8 4,9
27 4.2.2023 10:00 0 0 65,8 5,8
28 4.2.2023 09:30 0 0 47,1 7,4
29 4.2.2023 09:00 0 0 44,4 7,7
30 4.2.2023 08:30 5 0 59 5,7
31 4.2.2023 08:00 3 0 97,5 0,5
32 4.2.2023 07:30 1 0 100 -0,7
33 4.2.2023 07:00 1 0 100 -1,8
34 4.2.2023 06:30 1 0 100 -2
35 4.2.2023 06:00 1 0 100 -1,7
36 4.2.2023 05:30 2 0 100 -1,7
37 4.2.2023 05:00 2 0 100 -1,1
38 4.2.2023 04:30 3 0 100 -0,9
39 4.2.2023 04:00 3 0 100 -1,2
40 4.2.2023 03:30 3 0 100 -0,2
41 4.2.2023 03:00 4 0 100 -0,3
42 4.2.2023 02:30 5 0 100 0,2
43 4.2.2023 02:00 4 0 99,9 -0,3
44 4.2.2023 01:30 9 0 99,1 1,1
45 4.2.2023 01:00 6 0 100 0,7
46 4.2.2023 00:30 10 0 99,9 0,3
47 4.2.2023 00:00 10 0 99,8 0,9
48 3.2.2023 23:30 10 0 99,9 0,1